Time;durP1;ratioP1;P1;durP2;ratioP2;P2;SDS_P1;SDS_P2;PMS_P1;PMS_P2;Temp;Humidity;BMP_temperature;BMP_pressure;BME280_temperature;BME280_humidity;BME280_pressure;Samples;Min_cycle;Max_cycle;Signal;HPM_P1;HPM_P2
2022/01/15 00:00:37;;;;;;;;;;;-3.20;99.90;;;;;;5080461;28;19923;-73
2022/01/15 00:03:04;;;;;;;;;;;-3.20;99.90;;;;;;5082458;28;19915;-73
2022/01/15 00:05:30;;;;;;;;;;;-3.20;99.90;;;;;;5082263;28;19916;-73
2022/01/15 00:07:56;;;;;;;;;;;-3.10;99.90;;;;;;5075988;28;19912;-73
2022/01/15 00:10:26;;;;;;;;;;;-3.20;99.90;;;;;;5070789;28;20327;-73
2022/01/15 00:12:51;;;;;;;;;;;-3.20;99.90;;;;;;5073363;28;19939;-73
2022/01/15 00:15:26;;;;;;;;;;;-3.30;99.90;;;;;;5079671;28;19959;-73
2022/01/15 00:20:19;;;;;;;;;;;-3.60;99.90;;;;;;5070840;28;19959;-73
2022/01/15 00:22:46;;;;;;;;;;;-3.70;99.90;;;;;;5070544;28;19909;-74
2022/01/15 00:25:11;;;;;;;;;;;-3.70;99.90;;;;;;5072492;28;19912;-74
2022/01/15 00:27:37;;;;;;;;;;;-3.70;99.90;;;;;;5073356;28;19909;-74
2022/01/15 00:30:03;;;;;;;;;;;-3.90;99.90;;;;;;5073556;28;19913;-74
2022/01/15 00:32:29;;;;;;;;;;;-4.00;99.90;;;;;;5073237;28;19917;-74
2022/01/15 00:34:54;;;;;;;;;;;-4.00;99.90;;;;;;5072936;28;20034;-74
2022/01/15 00:37:20;;;;;;;;;;;-3.90;99.90;;;;;;5073233;28;20369;-73
2022/01/15 00:39:45;;;;;;;;;;;-4.00;99.90;;;;;;5072128;28;19912;-73
2022/01/15 00:42:11;;;;;;;;;;;-3.90;99.90;;;;;;5074801;28;20377;-74
2022/01/15 00:44:39;;;;;;;;;;;-4.00;99.90;;;;;;5085262;28;20049;-73
2022/01/15 00:47:04;;;;;;;;;;;-4.00;99.90;;;;;;5077813;28;19916;-75
2022/01/15 00:49:30;;;;;;;;;;;-4.00;99.90;;;;;;5073083;28;20266;-74
2022/01/15 00:51:55;;;;;;;;;;;-4.20;99.90;;;;;;5073004;28;20383;-74
2022/01/15 00:54:21;;;;;;;;;;;-4.20;99.90;;;;;;5072409;28;19909;-74
2022/01/15 00:56:46;;;;;;;;;;;-4.40;99.90;;;;;;5072724;28;19908;-74
2022/01/15 00:59:14;;;;;;;;;;;-4.40;99.90;;;;;;5072846;28;19954;-73
2022/01/15 01:01:39;;;;;;;;;;;-4.40;99.90;;;;;;5072986;28;19915;-74
2022/01/15 01:04:05;;;;;;;;;;;-4.30;99.90;;;;;;5072356;28;19927;-74
2022/01/15 01:06:30;;;;;;;;;;;-4.20;99.90;;;;;;5072677;28;19923;-74
2022/01/15 01:08:56;;;;;;;;;;;-4.20;99.90;;;;;;5084352;28;20284;-74
2022/01/15 01:11:43;;;;;;;;;;;-4.30;99.90;;;;;;5091965;28;19917;-75
2022/01/15 01:24:31;;;;;;;;;;;-4.20;99.90;;;;;;5072062;28;19912;-72
2022/01/15 01:29:53;;;;;;;;;;;-4.10;99.90;;;;;;5072261;28;19909;-73
2022/01/15 01:34:56;;;;;;;;;;;-4.20;99.90;;;;;;5091052;28;19912;-73
2022/01/15 01:37:34;;;;;;;;;;;-4.40;99.90;;;;;;5090848;28;20426;-73
2022/01/15 01:42:53;;;;;;;;;;;-4.50;99.90;;;;;;5085450;28;19916;-72
2022/01/15 01:45:19;;;;;;;;;;;-4.60;99.90;;;;;;5082757;28;19962;-73
2022/01/15 01:47:44;;;;;;;;;;;-4.60;99.90;;;;;;5072128;28;19916;-73
2022/01/15 01:50:12;;;;;;;;;;;-4.30;99.90;;;;;;5071766;28;19999;-73
2022/01/15 01:52:38;;;;;;;;;;;-4.40;99.90;;;;;;5072017;28;19913;-73
2022/01/15 01:55:04;;;;;;;;;;;-4.30;99.90;;;;;;5070979;28;20371;-72
2022/01/15 01:57:29;;;;;;;;;;;-4.20;99.90;;;;;;5071822;28;19968;-72
2022/01/15 01:59:55;;;;;;;;;;;-4.40;99.90;;;;;;5071693;28;19919;-74
2022/01/15 02:02:20;;;;;;;;;;;-4.40;99.90;;;;;;5072136;28;19931;-73
2022/01/15 02:04:46;;;;;;;;;;;-4.30;99.90;;;;;;5071098;28;20361;-73
2022/01/15 02:07:12;;;;;;;;;;;-4.40;99.90;;;;;;5071800;28;19909;-73
2022/01/15 02:09:38;;;;;;;;;;;-4.60;99.90;;;;;;5071469;28;19962;-73
2022/01/15 02:12:04;;;;;;;;;;;-4.60;99.90;;;;;;5072109;28;19912;-72
2022/01/15 02:14:30;;;;;;;;;;;-4.70;99.90;;;;;;5075367;28;19924;-73
2022/01/15 02:16:56;;;;;;;;;;;-4.60;99.90;;;;;;5076849;28;19912;-73
2022/01/15 02:19:24;;;;;;;;;;;-4.70;99.90;;;;;;5071659;28;19915;-74
2022/01/15 02:24:15;;;;;;;;;;;-4.50;99.90;;;;;;5071004;28;19959;-73
2022/01/15 02:26:40;;;;;;;;;;;-4.50;99.90;;;;;;5069958;28;20289;-73
2022/01/15 02:29:07;;;;;;;;;;;-4.70;99.90;;;;;;5071789;28;19915;-74
2022/01/15 02:31:33;;;;;;;;;;;-4.80;99.90;;;;;;5071383;28;20262;-73
2022/01/15 02:33:59;;;;;;;;;;;-4.90;99.90;;;;;;5071334;28;19909;-73
2022/01/15 02:36:26;;;;;;;;;;;-5.00;99.90;;;;;;5071268;28;19934;-73
2022/01/15 02:38:52;;;;;;;;;;;-5.00;99.90;;;;;;5071417;28;19909;-73
2022/01/15 02:41:35;;;;;;;;;;;-5.00;99.90;;;;;;5071297;28;19916;-73
2022/01/15 02:44:01;;;;;;;;;;;-5.00;99.90;;;;;;5075551;28;19908;-74
2022/01/15 02:48:53;;;;;;;;;;;-5.20;99.90;;;;;;5074237;28;19953;-74
2022/01/15 02:51:23;;;;;;;;;;;-5.00;99.90;;;;;;5075166;28;19908;-74
2022/01/15 02:53:55;;;;;;;;;;;-5.00;99.90;;;;;;5074964;28;19908;-74
2022/01/15 02:56:24;;;;;;;;;;;-4.80;99.90;;;;;;5074982;28;20293;-74
2022/01/15 02:58:49;;;;;;;;;;;-4.80;99.90;;;;;;5075273;28;19909;-73
2022/01/15 03:01:15;;;;;;;;;;;-4.70;99.90;;;;;;5074949;28;19912;-73
2022/01/15 03:03:40;;;;;;;;;;;-4.80;99.90;;;;;;5074653;28;20010;-74
2022/01/15 03:06:13;;;;;;;;;;;-4.70;99.90;;;;;;5074749;28;20293;-74
2022/01/15 03:08:39;;;;;;;;;;;-4.60;99.90;;;;;;5074733;28;19909;-74
2022/01/15 03:11:06;;;;;;;;;;;-4.70;99.90;;;;;;5074811;28;19959;-73
2022/01/15 03:13:32;;;;;;;;;;;-4.80;99.90;;;;;;5080746;28;20773;-73
2022/01/15 03:15:58;;;;;;;;;;;-4.80;99.90;;;;;;5082528;28;20015;-73
2022/01/15 03:18:23;;;;;;;;;;;-4.80;99.90;;;;;;5074355;28;20415;-72
2022/01/15 03:20:49;;;;;;;;;;;-4.80;99.90;;;;;;5074920;28;20217;-73
2022/01/15 03:23:14;;;;;;;;;;;-4.70;99.90;;;;;;5072743;28;19912;-73
2022/01/15 03:25:40;;;;;;;;;;;-4.70;99.90;;;;;;5074609;28;19923;-72
2022/01/15 03:28:05;;;;;;;;;;;-4.50;99.90;;;;;;5074470;28;19920;-73
2022/01/15 03:30:31;;;;;;;;;;;-4.30;99.90;;;;;;5074466;28;19914;-73
2022/01/15 03:32:56;;;;;;;;;;;-4.40;99.90;;;;;;5078219;28;19908;-72
2022/01/15 03:35:22;;;;;;;;;;;-4.50;99.90;;;;;;5094100;28;20495;-72
2022/01/15 03:37:48;;;;;;;;;;;-4.60;99.90;;;;;;5085738;28;19908;-73
2022/01/15 03:40:15;;;;;;;;;;;-4.70;99.90;;;;;;5074589;28;20084;-73
2022/01/15 03:42:40;;;;;;;;;;;-4.80;99.90;;;;;;5079567;28;19908;-73
2022/01/15 03:45:06;;;;;;;;;;;-4.80;99.90;;;;;;5086692;28;19908;-72
2022/01/15 03:47:32;;;;;;;;;;;-4.80;99.90;;;;;;5075101;28;20011;-73
2022/01/15 03:49:57;;;;;;;;;;;-5.00;99.90;;;;;;5074251;28;20254;-73
2022/01/15 03:52:23;;;;;;;;;;;-4.90;99.90;;;;;;5074268;28;20359;-73
2022/01/15 03:54:48;;;;;;;;;;;-4.90;99.90;;;;;;5073480;28;19909;-73
2022/01/15 03:57:14;;;;;;;;;;;-5.00;99.90;;;;;;5074064;28;19916;-73
2022/01/15 03:59:40;;;;;;;;;;;-5.00;99.90;;;;;;5073044;28;19908;-73
2022/01/15 04:02:06;;;;;;;;;;;-5.10;99.90;;;;;;5073711;28;19973;-73
2022/01/15 04:04:32;;;;;;;;;;;-5.20;99.90;;;;;;5073145;28;19912;-74
2022/01/15 04:06:57;;;;;;;;;;;-5.10;99.90;;;;;;5073689;28;20009;-73
2022/01/15 04:09:23;;;;;;;;;;;-5.00;99.90;;;;;;5073530;28;19909;-72
2022/01/15 04:11:48;;;;;;;;;;;-4.90;99.90;;;;;;5072352;28;19908;-74
2022/01/15 04:14:14;;;;;;;;;;;-4.70;99.90;;;;;;5081736;28;19920;-74
2022/01/15 04:16:39;;;;;;;;;;;-4.90;99.90;;;;;;5074261;28;19908;-73
2022/01/15 04:19:08;;;;;;;;;;;-4.90;99.90;;;;;;5073343;28;19947;-73
2022/01/15 04:21:35;;;;;;;;;;;-4.90;99.90;;;;;;5072609;28;19909;-74
2022/01/15 04:24:00;;;;;;;;;;;-5.20;99.90;;;;;;5071863;28;19915;-74
2022/01/15 04:26:27;;;;;;;;;;;-5.20;99.90;;;;;;5072174;28;20038;-74
2022/01/15 04:28:53;;;;;;;;;;;-5.10;99.90;;;;;;5073439;28;19909;-74
2022/01/15 04:31:19;;;;;;;;;;;-4.90;99.90;;;;;;5073235;28;19919;-74
2022/01/15 04:33:45;;;;;;;;;;;-4.80;99.90;;;;;;5071680;28;19912;-74
2022/01/15 04:36:11;;;;;;;;;;;-4.70;99.90;;;;;;5073233;28;19916;-74
2022/01/15 04:38:38;;;;;;;;;;;-4.60;99.90;;;;;;5073153;28;19908;-73
2022/01/15 04:41:04;;;;;;;;;;;-4.70;99.90;;;;;;5073535;28;20000;-73
2022/01/15 04:43:30;;;;;;;;;;;-5.10;99.90;;;;;;5079512;28;19908;-73
2022/01/15 04:45:56;;;;;;;;;;;-5.30;99.90;;;;;;5080758;28;20285;-73
2022/01/15 04:48:21;;;;;;;;;;;-5.40;99.90;;;;;;5073139;28;19957;-73
2022/01/15 04:50:47;;;;;;;;;;;-5.20;99.90;;;;;;5072961;28;20392;-73
2022/01/15 04:53:12;;;;;;;;;;;-5.40;99.90;;;;;;5072623;28;19947;-73
2022/01/15 04:55:38;;;;;;;;;;;-5.10;99.90;;;;;;5072767;28;19995;-73
2022/01/15 04:58:05;;;;;;;;;;;-5.10;99.90;;;;;;5072847;28;19908;-74
2022/01/15 05:00:31;;;;;;;;;;;-5.30;99.90;;;;;;5091930;28;19979;-73
2022/01/15 05:02:57;;;;;;;;;;;-5.20;99.90;;;;;;5091929;28;20006;-73
2022/01/15 05:05:23;;;;;;;;;;;-5.10;99.90;;;;;;5091707;28;19912;-73
2022/01/15 05:07:48;;;;;;;;;;;-5.20;99.90;;;;;;5092210;28;19915;-73
2022/01/15 05:10:16;;;;;;;;;;;-5.30;99.90;;;;;;5090573;28;19919;-74
2022/01/15 05:12:44;;;;;;;;;;;-5.10;99.90;;;;;;5086409;28;20380;-74
2022/01/15 05:15:11;;;;;;;;;;;-5.00;99.90;;;;;;5077100;28;19923;-74
2022/01/15 05:17:37;;;;;;;;;;;-4.90;99.90;;;;;;5072952;28;20273;-74
2022/01/15 05:20:03;;;;;;;;;;;-4.90;99.90;;;;;;5072376;28;20003;-73
2022/01/15 05:22:28;;;;;;;;;;;-5.00;99.90;;;;;;5072640;28;19908;-73
2022/01/15 05:24:54;;;;;;;;;;;-5.10;99.90;;;;;;5070404;28;19973;-74
2022/01/15 05:27:19;;;;;;;;;;;-5.20;99.90;;;;;;5072364;28;19909;-74
2022/01/15 05:29:45;;;;;;;;;;;-5.40;99.90;;;;;;5071839;28;20368;-74
2022/01/15 05:32:10;;;;;;;;;;;-5.30;99.90;;;;;;5072291;28;20025;-74
2022/01/15 05:34:36;;;;;;;;;;;-5.40;99.90;;;;;;5071721;28;20229;-74
2022/01/15 05:37:02;;;;;;;;;;;-5.40;99.90;;;;;;5071993;28;19912;-74
2022/01/15 05:39:28;;;;;;;;;;;-5.40;99.90;;;;;;5071920;28;19909;-73
2022/01/15 05:41:53;;;;;;;;;;;-5.10;99.90;;;;;;5071918;28;19915;-74
2022/01/15 05:44:19;;;;;;;;;;;-5.10;99.90;;;;;;5080263;28;19908;-73
2022/01/15 05:46:45;;;;;;;;;;;-5.00;99.90;;;;;;5072983;28;20277;-74
2022/01/15 05:49:11;;;;;;;;;;;-5.00;99.90;;;;;;5072020;28;19909;-74
2022/01/15 05:51:36;;;;;;;;;;;-4.90;99.90;;;;;;5071729;28;20400;-74
2022/01/15 05:54:03;;;;;;;;;;;-4.80;99.90;;;;;;5071513;28;19952;-74
2022/01/15 05:56:29;;;;;;;;;;;-4.70;99.90;;;;;;5071702;28;20202;-74
2022/01/15 05:58:54;;;;;;;;;;;-5.10;99.90;;;;;;5071560;28;19931;-74
2022/01/15 06:01:20;;;;;;;;;;;-5.40;99.90;;;;;;5071553;28;20003;-74
2022/01/15 06:03:46;;;;;;;;;;;-5.40;99.90;;;;;;5071377;28;19912;-74
2022/01/15 06:06:11;;;;;;;;;;;-5.30;99.90;;;;;;5071419;28;20033;-73
2022/01/15 06:08:37;;;;;;;;;;;-5.50;99.90;;;;;;5071707;28;19912;-74
2022/01/15 06:11:02;;;;;;;;;;;-5.50;99.90;;;;;;5070220;28;19915;-74
2022/01/15 06:13:28;;;;;;;;;;;-5.30;99.90;;;;;;5083826;28;19908;-73
2022/01/15 06:15:53;;;;;;;;;;;-5.40;99.90;;;;;;5081481;28;19947;-74
2022/01/15 06:18:19;;;;;;;;;;;-5.50;99.90;;;;;;5070159;28;19999;-74
2022/01/15 06:20:44;;;;;;;;;;;-5.50;99.90;;;;;;5072919;28;20247;-74
2022/01/15 06:23:10;;;;;;;;;;;-5.40;99.90;;;;;;5078411;28;19915;-74
2022/01/15 06:25:35;;;;;;;;;;;-5.50;99.90;;;;;;5079464;28;19952;-74
2022/01/15 06:28:01;;;;;;;;;;;-5.60;99.90;;;;;;5079205;28;19912;-74
2022/01/15 06:30:26;;;;;;;;;;;-5.80;99.90;;;;;;5079253;28;19915;-73
2022/01/15 06:32:52;;;;;;;;;;;-5.90;99.90;;;;;;5077777;28;20297;-74
2022/01/15 06:35:17;;;;;;;;;;;-6.00;99.90;;;;;;5071396;28;19909;-74
2022/01/15 06:37:44;;;;;;;;;;;-6.10;99.90;;;;;;5069928;28;20007;-74
2022/01/15 06:40:11;;;;;;;;;;;-6.20;99.90;;;;;;5072135;28;20273;-74
2022/01/15 06:42:37;;;;;;;;;;;-6.00;99.90;;;;;;5075808;28;20346;-74
2022/01/15 06:45:06;;;;;;;;;;;-5.80;99.90;;;;;;5076448;28;19912;-74
2022/01/15 06:47:31;;;;;;;;;;;-5.60;99.90;;;;;;5072659;28;19962;-74
2022/01/15 06:49:57;;;;;;;;;;;-5.50;99.90;;;;;;5071351;28;19908;-73
2022/01/15 06:52:24;;;;;;;;;;;-5.40;99.90;;;;;;5071172;28;19916;-74
2022/01/15 06:54:49;;;;;;;;;;;-5.40;99.90;;;;;;5070823;28;19916;-74
2022/01/15 06:57:15;;;;;;;;;;;-5.40;99.90;;;;;;5070919;28;19928;-73
2022/01/15 06:59:44;;;;;;;;;;;-5.40;99.90;;;;;;5071282;28;19908;-74
2022/01/15 07:02:10;;;;;;;;;;;-5.60;99.90;;;;;;5069869;28;19908;-73
2022/01/15 07:04:36;;;;;;;;;;;-5.60;99.90;;;;;;5070562;28;19916;-74
2022/01/15 07:07:02;;;;;;;;;;;-5.60;99.90;;;;;;5071081;28;19913;-74
2022/01/15 07:09:27;;;;;;;;;;;-5.50;99.90;;;;;;5070993;28;20427;-73
2022/01/15 07:11:53;;;;;;;;;;;-5.50;99.90;;;;;;5071039;28;19908;-74
2022/01/15 07:14:18;;;;;;;;;;;-5.40;99.90;;;;;;5082605;28;19920;-74
2022/01/15 07:16:44;;;;;;;;;;;-5.40;99.90;;;;;;5072220;28;19913;-74
2022/01/15 07:19:09;;;;;;;;;;;-5.20;99.90;;;;;;5070901;28;20022;-74
2022/01/15 07:21:35;;;;;;;;;;;-5.30;99.90;;;;;;5071439;28;19915;-74
2022/01/15 07:24:00;;;;;;;;;;;-5.60;99.90;;;;;;5071331;28;19951;-74
2022/01/15 07:26:26;;;;;;;;;;;-5.70;99.90;;;;;;5070672;28;19982;-74
2022/01/15 07:28:51;;;;;;;;;;;-5.60;99.90;;;;;;5069638;28;20001;-74
2022/01/15 07:31:17;;;;;;;;;;;-5.40;99.90;;;;;;5070970;28;19908;-74
2022/01/15 07:33:42;;;;;;;;;;;-5.20;99.90;;;;;;5070380;28;19908;-74
2022/01/15 07:36:08;;;;;;;;;;;-5.20;99.90;;;;;;5073754;28;20009;-74
2022/01/15 07:38:34;;;;;;;;;;;-5.20;99.90;;;;;;5074309;28;19908;-74
2022/01/15 07:41:00;;;;;;;;;;;-5.20;99.90;;;;;;5072916;28;19908;-74
2022/01/15 07:43:27;;;;;;;;;;;-5.20;99.90;;;;;;5080770;28;19912;-74
2022/01/15 07:45:52;;;;;;;;;;;-5.10;99.90;;;;;;5082487;28;19912;-73
2022/01/15 07:48:21;;;;;;;;;;;-5.10;99.90;;;;;;5075362;28;20467;-73
2022/01/15 07:50:47;;;;;;;;;;;-5.20;99.90;;;;;;5073945;28;19967;-74
2022/01/15 07:53:12;;;;;;;;;;;-5.10;99.90;;;;;;5073715;28;20326;-74
2022/01/15 07:55:38;;;;;;;;;;;-5.00;99.90;;;;;;5073524;28;20419;-74
2022/01/15 07:58:04;;;;;;;;;;;-5.00;99.90;;;;;;5074204;28;19919;-74
2022/01/15 08:00:29;;;;;;;;;;;-5.10;99.90;;;;;;5073932;28;20358;-74
2022/01/15 08:02:56;;;;;;;;;;;-5.10;99.90;;;;;;5073964;28;19952;-74
2022/01/15 08:05:21;;;;;;;;;;;-5.00;99.90;;;;;;5073612;28;19935;-74
2022/01/15 08:07:47;;;;;;;;;;;-5.00;99.90;;;;;;5074031;28;19908;-74
2022/01/15 08:10:12;;;;;;;;;;;-4.90;99.90;;;;;;5073471;28;19908;-74
2022/01/15 08:12:41;;;;;;;;;;;-4.80;99.90;;;;;;5078516;28;19915;-74
2022/01/15 08:15:07;;;;;;;;;;;-4.70;99.90;;;;;;5079116;28;19916;-73
2022/01/15 08:17:32;;;;;;;;;;;-4.50;99.90;;;;;;5075298;28;19915;-74
2022/01/15 08:19:58;;;;;;;;;;;-4.40;99.90;;;;;;5073705;28;20038;-74
2022/01/15 08:22:23;;;;;;;;;;;-4.40;99.90;;;;;;5073655;28;19913;-74
2022/01/15 08:24:50;;;;;;;;;;;-4.30;99.90;;;;;;5071650;28;19994;-74
2022/01/15 08:27:16;;;;;;;;;;;-4.00;99.90;;;;;;5074298;28;19943;-74
2022/01/15 08:29:41;;;;;;;;;;;-2.90;99.90;;;;;;5073671;28;20413;-74
2022/01/15 08:32:07;;;;;;;;;;;-1.80;99.90;;;;;;5073832;28;20327;-75
2022/01/15 08:34:32;;;;;;;;;;;-1.30;99.90;;;;;;5072877;28;19959;-75
2022/01/15 08:36:58;;;;;;;;;;;-1.00;99.90;;;;;;5073304;28;19908;-75
2022/01/15 08:39:23;;;;;;;;;;;-0.30;99.90;;;;;;5073274;28;19966;-74
2022/01/15 08:41:49;;;;;;;;;;;0.50;99.90;;;;;;5073148;28;20349;-75
2022/01/15 08:44:15;;;;;;;;;;;1.00;99.90;;;;;;5082051;28;19908;-75
2022/01/15 08:46:41;;;;;;;;;;;0.50;99.90;;;;;;5074001;28;19973;-75
2022/01/15 08:49:07;;;;;;;;;;;1.10;99.90;;;;;;5073502;28;19909;-75
2022/01/15 08:51:32;;;;;;;;;;;1.70;99.90;;;;;;5073035;28;19931;-75
2022/01/15 08:53:58;;;;;;;;;;;2.10;99.90;;;;;;5072638;28;20392;-75
2022/01/15 08:56:23;;;;;;;;;;;2.00;99.90;;;;;;5072481;28;19916;-74
2022/01/15 08:58:49;;;;;;;;;;;2.90;99.90;;;;;;5073053;28;20453;-75
2022/01/15 09:01:15;;;;;;;;;;;3.80;99.90;;;;;;5073176;28;20365;-75
2022/01/15 09:03:41;;;;;;;;;;;4.50;99.90;;;;;;5072579;28;19916;-75
2022/01/15 09:06:07;;;;;;;;;;;4.40;99.90;;;;;;5072667;28;19913;-74
2022/01/15 09:08:33;;;;;;;;;;;4.80;99.90;;;;;;5072848;28;19912;-74
2022/01/15 09:10:58;;;;;;;;;;;5.10;99.10;;;;;;5072881;28;20372;-74
2022/01/15 09:13:24;;;;;;;;;;;5.10;99.90;;;;;;5078767;28;20280;-73
2022/01/15 09:15:50;;;;;;;;;;;5.80;99.10;;;;;;5081394;28;19984;-74
2022/01/15 09:18:16;;;;;;;;;;;6.90;97.10;;;;;;5092141;28;20002;-74
2022/01/15 09:20:42;;;;;;;;;;;7.20;96.40;;;;;;5092263;28;19947;-74
2022/01/15 09:23:08;;;;;;;;;;;7.60;95.50;;;;;;5091437;28;19910;-74
2022/01/15 09:25:33;;;;;;;;;;;8.00;94.60;;;;;;5090255;28;20411;-74
2022/01/15 09:30:43;;;;;;;;;;;8.50;93.10;;;;;;5092106;28;20377;-73
2022/01/15 09:33:09;;;;;;;;;;;8.40;92.90;;;;;;5085168;28;19912;-73
2022/01/15 09:35:35;;;;;;;;;;;9.60;91.60;;;;;;5072966;28;19915;-72
2022/01/15 09:38:00;;;;;;;;;;;9.40;91.60;;;;;;5072120;28;19913;-74
2022/01/15 09:40:27;;;;;;;;;;;10.80;90.20;;;;;;5072424;28;19920;-73
2022/01/15 09:42:53;;;;;;;;;;;11.50;85.60;;;;;;5072099;28;19908;-74
2022/01/15 09:45:19;;;;;;;;;;;11.90;84.40;;;;;;5072171;28;20376;-74
2022/01/15 09:47:45;;;;;;;;;;;11.00;85.10;;;;;;5085065;28;19915;-74
2022/01/15 09:50:12;;;;;;;;;;;10.90;86.20;;;;;;5091559;28;19908;-74
2022/01/15 09:52:38;;;;;;;;;;;11.10;84.20;;;;;;5091959;28;19908;-74
2022/01/15 09:55:05;;;;;;;;;;;9.80;89.60;;;;;;5091082;28;20386;-74
2022/01/15 09:57:30;;;;;;;;;;;10.50;87.60;;;;;;5090693;28;19912;-74
2022/01/15 09:59:56;;;;;;;;;;;10.40;86.50;;;;;;5091553;28;19958;-74
2022/01/15 10:02:22;;;;;;;;;;;10.60;87.20;;;;;;5082527;28;20007;-74
2022/01/15 10:04:47;;;;;;;;;;;10.50;86.00;;;;;;5083275;28;19909;-74
2022/01/15 10:07:17;;;;;;;;;;;11.30;85.60;;;;;;5073106;28;19920;-74
2022/01/15 10:09:43;;;;;;;;;;;12.00;83.40;;;;;;5071954;28;19909;-74
2022/01/15 10:12:10;;;;;;;;;;;11.90;82.60;;;;;;5071932;28;20384;-74
2022/01/15 10:14:37;;;;;;;;;;;12.10;80.50;;;;;;5071256;28;20353;-74
2022/01/15 10:17:23;;;;;;;;;;;12.60;81.50;;;;;;5071129;28;20223;-74
2022/01/15 10:19:49;;;;;;;;;;;12.50;78.70;;;;;;5085799;28;19951;-74
2022/01/15 10:22:14;;;;;;;;;;;12.30;79.40;;;;;;5091234;28;19944;-74
2022/01/15 10:24:42;;;;;;;;;;;12.10;78.80;;;;;;5090639;28;19912;-73
2022/01/15 10:27:19;;;;;;;;;;;12.10;79.60;;;;;;5091388;28;20361;-74
2022/01/15 10:29:49;;;;;;;;;;;13.30;77.20;;;;;;5090828;28;19908;-74
2022/01/15 10:32:15;;;;;;;;;;;13.30;78.20;;;;;;5085560;28;19908;-74
2022/01/15 10:34:42;;;;;;;;;;;13.30;77.70;;;;;;5073016;28;19962;-74
2022/01/15 10:37:10;;;;;;;;;;;12.00;78.80;;;;;;5075699;28;19915;-74
2022/01/15 10:39:36;;;;;;;;;;;11.10;83.60;;;;;;5069952;28;19919;-74
2022/01/15 10:42:11;;;;;;;;;;;11.00;83.10;;;;;;5071480;28;19909;-74
2022/01/15 10:44:37;;;;;;;;;;;9.40;86.60;;;;;;5070961;28;19963;-74
2022/01/15 10:47:04;;;;;;;;;;;8.90;90.60;;;;;;5071464;28;19919;-75
2022/01/15 10:49:30;;;;;;;;;;;8.20;91.30;;;;;;5071448;28;19913;-75
2022/01/15 10:52:08;;;;;;;;;;;8.70;92.00;;;;;;5070006;28;19923;-75
2022/01/15 10:54:34;;;;;;;;;;;9.00;90.60;;;;;;5070779;28;19909;-74
2022/01/15 10:57:10;;;;;;;;;;;8.30;92.00;;;;;;5071424;28;19912;-74
2022/01/15 10:59:36;;;;;;;;;;;6.50;93.80;;;;;;5071316;28;19919;-74
2022/01/15 11:02:18;;;;;;;;;;;5.50;95.90;;;;;;5079749;28;19908;-74
2022/01/15 11:04:44;;;;;;;;;;;5.20;97.80;;;;;;5076778;28;20012;-74
2022/01/15 11:07:19;;;;;;;;;;;5.20;98.50;;;;;;5071096;28;19991;-74
2022/01/15 11:09:46;;;;;;;;;;;5.40;98.50;;;;;;5073841;28;20290;-74
2022/01/15 11:12:11;;;;;;;;;;;6.30;97.20;;;;;;5075139;28;19951;-74
2022/01/15 11:14:37;;;;;;;;;;;7.50;95.30;;;;;;5074459;28;20340;-73
2022/01/15 11:17:03;;;;;;;;;;;6.90;95.10;;;;;;5074472;28;19916;-74
2022/01/15 11:19:32;;;;;;;;;;;6.40;95.70;;;;;;5074849;28;19908;-74
2022/01/15 11:21:58;;;;;;;;;;;5.50;96.60;;;;;;5075131;28;19935;-74
2022/01/15 11:24:24;;;;;;;;;;;4.80;97.20;;;;;;5074363;28;20393;-74
2022/01/15 11:26:55;;;;;;;;;;;4.60;98.30;;;;;;5074382;28;20080;-74
2022/01/15 11:29:20;;;;;;;;;;;4.40;99.60;;;;;;5077997;28;19912;-74
2022/01/15 11:31:46;;;;;;;;;;;4.00;99.90;;;;;;5076537;28;20270;-74
2022/01/15 11:34:14;;;;;;;;;;;4.00;99.10;;;;;;5084909;28;19908;-73
2022/01/15 11:36:40;;;;;;;;;;;4.00;99.90;;;;;;5079996;28;19909;-74
2022/01/15 11:39:10;;;;;;;;;;;3.90;99.90;;;;;;5075290;28;19966;-74
2022/01/15 11:41:37;;;;;;;;;;;3.70;99.90;;;;;;5075180;28;20117;-74
2022/01/15 11:44:03;;;;;;;;;;;3.80;99.90;;;;;;5073618;28;20285;-74
2022/01/15 11:46:29;;;;;;;;;;;3.70;99.90;;;;;;5075024;28;19966;-73
2022/01/15 11:49:13;;;;;;;;;;;3.70;99.90;;;;;;5075171;28;19912;-73
2022/01/15 11:51:39;;;;;;;;;;;3.60;99.90;;;;;;5074378;28;19908;-73
2022/01/15 11:54:10;;;;;;;;;;;3.50;99.90;;;;;;5073947;28;20009;-73
2022/01/15 11:56:42;;;;;;;;;;;3.50;99.90;;;;;;5074319;28;19913;-74
2022/01/15 11:59:25;;;;;;;;;;;3.40;99.90;;;;;;5081243;28;19917;-73
2022/01/15 12:01:55;;;;;;;;;;;3.30;99.90;;;;;;5074048;28;19978;-74
2022/01/15 12:04:30;;;;;;;;;;;3.30;99.90;;;;;;5073892;28;19908;-74
2022/01/15 12:09:46;;;;;;;;;;;3.40;99.90;;;;;;5081905;28;20284;-73
2022/01/15 12:12:17;;;;;;;;;;;3.40;99.90;;;;;;5076466;28;19908;-74
2022/01/15 12:14:51;;;;;;;;;;;3.40;99.90;;;;;;5072243;28;20381;-74
2022/01/15 12:17:30;;;;;;;;;;;3.60;99.90;;;;;;5074011;28;20334;-74
2022/01/15 12:19:56;;;;;;;;;;;3.60;99.90;;;;;;5073603;28;19919;-73
2022/01/15 12:22:44;;;;;;;;;;;3.60;99.90;;;;;;5073531;28;19943;-74
2022/01/15 12:25:11;;;;;;;;;;;3.60;99.90;;;;;;5088712;28;19966;-73
2022/01/15 12:27:38;;;;;;;;;;;3.50;99.90;;;;;;5093141;28;19908;-73
2022/01/15 12:30:06;;;;;;;;;;;3.40;99.90;;;;;;5093229;28;19930;-73
2022/01/15 12:32:38;;;;;;;;;;;3.50;99.90;;;;;;5093012;28;19908;-72
2022/01/15 12:35:04;;;;;;;;;;;3.70;99.90;;;;;;5082286;28;19944;-73
2022/01/15 12:37:30;;;;;;;;;;;3.70;99.90;;;;;;5080618;28;19954;-73
2022/01/15 12:39:55;;;;;;;;;;;3.70;99.90;;;;;;5073580;28;19909;-72
2022/01/15 12:42:28;;;;;;;;;;;3.60;99.90;;;;;;5073783;28;19908;-73
2022/01/15 12:44:53;;;;;;;;;;;3.50;99.90;;;;;;5073105;28;20286;-72
2022/01/15 12:47:20;;;;;;;;;;;3.40;99.90;;;;;;5073171;28;19923;-73
2022/01/15 12:49:48;;;;;;;;;;;3.40;99.90;;;;;;5073387;28;19923;-73
2022/01/15 12:52:20;;;;;;;;;;;3.40;99.90;;;;;;5071849;28;19912;-71
2022/01/15 12:54:47;;;;;;;;;;;3.30;99.90;;;;;;5082971;28;19937;-73
2022/01/15 12:57:12;;;;;;;;;;;3.30;99.90;;;;;;5092696;28;20296;-73
2022/01/15 12:59:38;;;;;;;;;;;3.20;99.90;;;;;;5092453;28;19916;-72
2022/01/15 13:02:04;;;;;;;;;;;3.30;99.90;;;;;;5085582;28;19916;-73
2022/01/15 13:04:29;;;;;;;;;;;3.20;99.90;;;;;;5083834;28;19919;-73
2022/01/15 13:06:58;;;;;;;;;;;3.40;99.90;;;;;;5077642;28;20380;-73
2022/01/15 13:09:37;;;;;;;;;;;3.50;99.90;;;;;;5073016;28;20021;-72
2022/01/15 13:12:03;;;;;;;;;;;3.40;99.90;;;;;;5075654;28;19957;-72
2022/01/15 13:14:39;;;;;;;;;;;3.40;99.90;;;;;;5080056;28;19916;-73
2022/01/15 13:17:05;;;;;;;;;;;3.80;99.90;;;;;;5075429;28;20357;-73
2022/01/15 13:19:37;;;;;;;;;;;3.80;99.90;;;;;;5072544;28;19974;-73
2022/01/15 13:22:02;;;;;;;;;;;3.80;99.90;;;;;;5072599;28;19908;-72
2022/01/15 13:24:28;;;;;;;;;;;3.80;99.90;;;;;;5072143;28;19909;-73
2022/01/15 13:26:57;;;;;;;;;;;3.40;99.90;;;;;;5072376;28;19939;-73
2022/01/15 13:29:35;;;;;;;;;;;3.40;99.90;;;;;;5072810;28;19966;-73
2022/01/15 13:32:01;;;;;;;;;;;3.60;99.90;;;;;;5084917;28;19928;-72
2022/01/15 13:34:28;;;;;;;;;;;3.80;99.90;;;;;;5084299;28;19962;-72
2022/01/15 13:36:53;;;;;;;;;;;3.80;99.90;;;;;;5084289;28;20328;-72
2022/01/15 13:39:19;;;;;;;;;;;3.90;99.90;;;;;;5071910;28;19908;-73
2022/01/15 13:41:45;;;;;;;;;;;3.60;99.90;;;;;;5072613;28;19908;-72
2022/01/15 13:44:12;;;;;;;;;;;3.30;99.90;;;;;;5071847;28;19909;-73
2022/01/15 13:46:40;;;;;;;;;;;3.30;99.90;;;;;;5072276;28;19999;-73
2022/01/15 13:49:10;;;;;;;;;;;3.40;99.90;;;;;;5077218;28;19912;-72
2022/01/15 13:54:54;;;;;;;;;;;3.40;99.90;;;;;;5071609;28;19954;-73
2022/01/15 13:57:24;;;;;;;;;;;3.30;99.90;;;;;;5070604;28;19962;-73
2022/01/15 13:59:56;;;;;;;;;;;3.50;99.90;;;;;;5085020;28;19915;-72
2022/01/15 14:02:26;;;;;;;;;;;3.50;99.90;;;;;;5091506;28;19919;-72
2022/01/15 14:05:07;;;;;;;;;;;3.50;99.90;;;;;;5086129;28;19919;-72
2022/01/15 14:07:35;;;;;;;;;;;3.60;99.90;;;;;;5082901;28;19912;-73
2022/01/15 14:10:01;;;;;;;;;;;3.60;99.90;;;;;;5077233;28;19944;-73
2022/01/15 14:12:26;;;;;;;;;;;3.50;99.90;;;;;;5071772;28;19916;-73
2022/01/15 14:15:03;;;;;;;;;;;3.60;99.90;;;;;;5071205;28;19973;-73
2022/01/15 14:17:29;;;;;;;;;;;3.60;99.90;;;;;;5072011;28;19909;-72
2022/01/15 14:22:25;;;;;;;;;;;3.70;99.90;;;;;;5071781;28;19908;-73
2022/01/15 14:24:51;;;;;;;;;;;3.40;99.90;;;;;;5077905;28;20292;-73
2022/01/15 14:27:22;;;;;;;;;;;3.20;99.90;;;;;;5079381;28;19927;-73
2022/01/15 14:29:51;;;;;;;;;;;3.00;99.90;;;;;;5072432;28;20419;-73
2022/01/15 14:32:17;;;;;;;;;;;2.90;99.90;;;;;;5080225;28;20262;-73
2022/01/15 14:34:48;;;;;;;;;;;2.90;99.90;;;;;;5083483;28;19919;-73
2022/01/15 14:37:13;;;;;;;;;;;2.80;99.90;;;;;;5075069;28;19908;-73
2022/01/15 14:39:40;;;;;;;;;;;2.90;99.90;;;;;;5071428;28;19915;-73
2022/01/15 14:42:06;;;;;;;;;;;3.20;99.90;;;;;;5071463;28;19947;-73
2022/01/15 14:44:31;;;;;;;;;;;3.00;99.90;;;;;;5073332;28;19908;-73
2022/01/15 14:46:57;;;;;;;;;;;3.40;99.90;;;;;;5075235;28;19919;-72
2022/01/15 14:49:22;;;;;;;;;;;3.20;99.90;;;;;;5075660;28;19912;-72
2022/01/15 14:51:48;;;;;;;;;;;3.00;99.90;;;;;;5074241;28;19962;-73
2022/01/15 14:54:13;;;;;;;;;;;2.80;99.90;;;;;;5073617;28;19987;-73
2022/01/15 14:56:39;;;;;;;;;;;3.00;99.90;;;;;;5075228;28;20381;-73